Capitol Logistics 2962


PANC
Ted Stevens Anchorage International Airport
Anchorage, Alaska, US
KCVG
Cincinnati/Northern Kentucky International Airport
Covington, Kentucky, US

Activity Log

Date Flight Route Aircraft Duration
11/13/2019 CPX2962 ANC9 TED YESKA NCA11 YWV J475 VLN 4900N/10000W GFK GEP J36 ODI J30 JOT CEGRM5 B744 5h 37m

Route Details

Aircraft Information
Primary: Boeing 747-400BCF
Backup: Boeing 777-200LRF
Route Data
Distance: 2700nm
Sched. Duration: 5h 46m
Avg. Duration: 5h 37m (-9m)
Times Flown: 1
Recm'd Route: ANC9 TED YESKA NCA11 YWV J475 VLN 4900N/10000W GFK GEP J36 ODI J30 JOT CEGRM5
Planned Altitude: 35,000ft
Origin Wx: PANC 311153Z 00000KT 10SM CLR M09/M12 A3015 RMK AO2 SLP212 4/019 T10941122 11028 21100 51022 $
Dest. Wx: KCVG 311152Z 03007KT 10SM OVC180 05/01 A2995 RMK AO2 SLP143 T00500006 10072 20050 58022
Notes: OPERATED FOR POLAR AIR CARGO

Financial History
Total Freight: 49,928lbs
Average Load: 49,928lbs/flt
Fuel Used: 142,921lbs
Avg. Fuel Used: 142,921lbs/flt
Fuel Expense: $185,797
Avg. Fuel Expense: $185,797
Avg. Fuel Cost: $1.30/lbs
Total Gross Income: $111,339
Pilot Pay: $239
Total Expenses: $12,077
Total Revenue: $-87,989
Average Revenue: $111,339.44